Time;durP1;ratioP1;P1;durP2;ratioP2;P2;SDS_P1;SDS_P2;PMS_P1;PMS_P2;Temp;Humidity;BMP_temperature;BMP_pressure;BME280_temperature;BME280_humidity;BME280_pressure;Samples;Min_cycle;Max_cycle;Signal;HPM_P1;HPM_P2
2024/04/02 00:02:42;;;;;;;;;0.00;0.00;;;;;;;;4983962;28;28867;-80
2024/04/02 00:05:29;;;;;;;;;1.00;0.00;;;;;;;;4977295;28;28878;-80
2024/04/02 00:11:28;;;;;;;;;0.00;0.00;;;;;;;;4922018;28;28584;-80
2024/04/02 00:17:25;;;;;;;;;;;;;;;;;;;;;
2024/04/02 00:23:02;;;;;;;;;3.00;0.00;;;;;;;;5019785;28;28634;-79
2024/04/02 00:26:29;;;;;;;;;;;;;;;;;;;;;
2024/04/02 00:32:57;;;;;;;;;1.00;0.00;;;;;;;;4927347;28;28740;-80
2024/04/02 00:41:55;;;;;;;;;3.00;0.00;;;;;;;;5008287;28;28463;-79
2024/04/02 00:44:43;;;;;;;;;0.67;0.67;;;;;;;;5000736;28;28617;-80
2024/04/02 00:50:49;;;;;;;;;3.00;0.00;;;;;;;;4980635;28;28726;-79
2024/04/02 00:54:04;;;;;;;;;1.00;0.00;;;;;;;;4986960;28;28568;-80
2024/04/02 00:57:03;;;;;;;;;;;;;;;;;;;;;
2024/04/02 00:59:59;;;;;;;;;;;;;;;;;;;;;
2024/04/02 01:03:12;;;;;;;;;;;;;;;;;;;;;
2024/04/02 01:06:11;;;;;;;;;;;;;;;;;;;;;
2024/04/02 01:08:56;;;;;;;;;1.00;1.00;;;;;;;;4941036;28;57039;-79
2024/04/02 01:11:53;;;;;;;;;;;;;;;;;;;;;
2024/04/02 01:14:30;;;;;;;;;1.67;0.67;;;;;;;;4934912;28;54746;-79
2024/04/02 01:16:57;;;;;;;;;5.33;3.00;;;;;;;;4982389;28;29054;-80
2024/04/02 01:19:29;;;;;;;;;4.00;0.00;;;;;;;;5037121;28;28579;-79
2024/04/02 01:21:56;;;;;;;;;0.00;0.00;;;;;;;;5044108;28;28980;-78
2024/04/02 01:24:24;;;;;;;;;0.00;0.00;;;;;;;;5057353;28;28740;-80
2024/04/02 01:26:50;;;;;;;;;0.67;0.00;;;;;;;;5045641;28;28951;-78
2024/04/02 01:29:22;;;;;;;;;1.00;1.00;;;;;;;;5045830;28;28804;-78
2024/04/02 01:31:53;;;;;;;;;0.33;0.33;;;;;;;;5043755;28;28884;-79
2024/04/02 01:34:22;;;;;;;;;1.67;0.00;;;;;;;;5043283;28;28555;-80
2024/04/02 01:36:50;;;;;;;;;4.00;0.00;;;;;;;;5042324;28;28616;-81
2024/04/02 01:39:21;;;;;;;;;0.33;0.00;;;;;;;;5047206;28;29073;-80
2024/04/02 01:41:48;;;;;;;;;0.00;0.00;;;;;;;;5046260;28;28926;-80
2024/04/02 01:44:21;;;;;;;;;0.00;0.00;;;;;;;;5047288;28;28426;-78
2024/04/02 01:46:46;;;;;;;;;2.00;0.00;;;;;;;;5048647;28;28573;-79
2024/04/02 01:49:12;;;;;;;;;1.00;0.00;;;;;;;;5047419;28;28564;-80
2024/04/02 01:51:39;;;;;;;;;4.00;0.00;;;;;;;;5037897;28;28624;-79
2024/04/02 01:54:05;;;;;;;;;0.00;0.00;;;;;;;;5047514;28;28532;-78
2024/04/02 01:56:33;;;;;;;;;0.00;0.00;;;;;;;;5048270;28;28534;-79
2024/04/02 01:58:59;;;;;;;;;1.00;0.00;;;;;;;;5042238;28;28572;-80
2024/04/02 02:01:24;;;;;;;;;1.00;0.00;;;;;;;;5067095;28;28815;-80
2024/04/02 02:03:52;;;;;;;;;1.00;0.00;;;;;;;;5045946;28;28593;-80
2024/04/02 02:06:19;;;;;;;;;0.00;0.00;;;;;;;;5049451;28;29630;-80
2024/04/02 02:08:51;;;;;;;;;0.67;0.00;;;;;;;;5049649;28;28657;-81
2024/04/02 02:11:21;;;;;;;;;1.67;0.00;;;;;;;;5049181;28;28737;-78
2024/04/02 02:13:48;;;;;;;;;2.00;0.00;;;;;;;;5048850;28;28773;-82
2024/04/02 02:16:16;;;;;;;;;0.00;0.00;;;;;;;;5048831;28;28879;-82
2024/04/02 02:18:46;;;;;;;;;1.00;0.00;;;;;;;;5052254;28;28629;-80
2024/04/02 02:21:17;;;;;;;;;1.00;0.00;;;;;;;;5051638;28;28931;-81
2024/04/02 02:23:53;;;;;;;;;1.00;0.00;;;;;;;;5044272;28;28637;-81
2024/04/02 02:26:23;;;;;;;;;1.00;0.00;;;;;;;;5047297;28;28615;-80
2024/04/02 02:29:02;;;;;;;;;0.00;0.00;;;;;;;;5070292;28;28604;-81
2024/04/02 02:31:29;;;;;;;;;0.00;0.00;;;;;;;;5045711;28;28957;-81
2024/04/02 02:33:59;;;;;;;;;1.00;0.00;;;;;;;;5049226;28;28505;-80
2024/04/02 02:36:24;;;;;;;;;1.00;0.00;;;;;;;;5047955;28;28626;-79
2024/04/02 02:38:51;;;;;;;;;1.00;0.00;;;;;;;;5048520;28;28509;-78
2024/04/02 02:41:19;;;;;;;;;1.00;0.00;;;;;;;;5048033;28;28513;-80
2024/04/02 02:43:47;;;;;;;;;0.67;0.00;;;;;;;;5047320;28;28584;-81
2024/04/02 02:46:13;;;;;;;;;3.00;0.00;;;;;;;;5043585;28;28453;-79
2024/04/02 02:48:47;;;;;;;;;0.00;0.00;;;;;;;;5048357;28;28655;-80
2024/04/02 02:51:17;;;;;;;;;2.33;0.00;;;;;;;;5048216;28;28610;-80
2024/04/02 02:53:46;;;;;;;;;1.00;0.00;;;;;;;;5036649;28;28419;-80
2024/04/02 02:56:14;;;;;;;;;1.00;1.00;;;;;;;;5047531;28;28633;-81
2024/04/02 02:58:41;;;;;;;;;2.00;0.00;;;;;;;;5046670;28;28690;-80
2024/04/02 03:01:08;;;;;;;;;0.33;0.00;;;;;;;;5048463;28;28672;-82
2024/04/02 03:03:35;;;;;;;;;0.00;0.00;;;;;;;;5048397;28;28466;-80
2024/04/02 03:06:13;;;;;;;;;0.00;0.00;;;;;;;;5049123;28;28493;-81
2024/04/02 03:08:47;;;;;;;;;0.00;0.00;;;;;;;;5046703;28;28872;-79
2024/04/02 03:11:17;;;;;;;;;1.00;0.00;;;;;;;;5051928;28;28512;-82
2024/04/02 03:13:44;;;;;;;;;2.00;1.00;;;;;;;;5042017;28;28451;-82
2024/04/02 03:16:11;;;;;;;;;0.67;0.33;;;;;;;;5048977;28;28766;-81
2024/04/02 03:18:40;;;;;;;;;1.00;0.00;;;;;;;;5043812;28;28950;-82
2024/04/02 03:21:13;;;;;;;;;1.33;0.00;;;;;;;;5045123;28;28678;-82
2024/04/02 03:23:42;;;;;;;;;0.00;0.00;;;;;;;;5047062;28;28615;-81
2024/04/02 03:26:12;;;;;;;;;0.67;0.00;;;;;;;;5050740;28;29265;-83
2024/04/02 03:28:45;;;;;;;;;2.67;0.00;;;;;;;;5046462;28;28777;-84
2024/04/02 03:31:27;;;;;;;;;1.33;0.00;;;;;;;;5045611;28;28119;-81
2024/04/02 03:34:01;;;;;;;;;4.00;0.00;;;;;;;;5049833;28;28604;-84
2024/04/02 03:36:28;;;;;;;;;1.00;0.00;;;;;;;;5047571;28;29588;-82
2024/04/02 03:38:57;;;;;;;;;3.33;0.00;;;;;;;;5049024;28;29865;-82
2024/04/02 03:41:25;;;;;;;;;0.67;0.00;;;;;;;;5047722;28;28479;-81
2024/04/02 03:43:51;;;;;;;;;0.00;0.00;;;;;;;;5049203;28;28635;-82
2024/04/02 03:46:21;;;;;;;;;1.00;0.00;;;;;;;;5047850;28;28584;-84
2024/04/02 03:48:50;;;;;;;;;2.00;1.00;;;;;;;;5049152;28;29807;-81
2024/04/02 03:51:16;;;;;;;;;3.67;0.00;;;;;;;;5042178;28;28686;-83
2024/04/02 03:53:43;;;;;;;;;0.00;0.00;;;;;;;;5047640;28;28958;-81
2024/04/02 03:56:09;;;;;;;;;0.00;0.00;;;;;;;;5048907;28;28846;-82
2024/04/02 03:58:39;;;;;;;;;1.00;0.00;;;;;;;;5046008;28;28808;-84
2024/04/02 04:01:09;;;;;;;;;0.00;0.00;;;;;;;;5043034;28;28493;-82
2024/04/02 04:03:35;;;;;;;;;2.33;0.00;;;;;;;;5046882;28;28738;-81
2024/04/02 04:06:04;;;;;;;;;0.00;0.00;;;;;;;;5047272;28;28279;-82
2024/04/02 04:08:37;;;;;;;;;0.00;0.00;;;;;;;;5047024;28;28895;-81
2024/04/02 04:11:05;;;;;;;;;0.33;0.00;;;;;;;;5048609;28;28514;-80
2024/04/02 04:13:34;;;;;;;;;0.00;0.00;;;;;;;;5059421;28;28654;-81
2024/04/02 04:16:04;;;;;;;;;1.00;0.00;;;;;;;;5047933;28;28613;-81
2024/04/02 04:18:31;;;;;;;;;0.00;0.00;;;;;;;;5046713;28;29458;-82
2024/04/02 04:21:07;;;;;;;;;1.00;0.00;;;;;;;;5047693;28;28551;-81
2024/04/02 04:23:36;;;;;;;;;1.67;0.00;;;;;;;;5043913;28;28450;-81
2024/04/02 04:26:07;;;;;;;;;1.00;0.00;;;;;;;;5049260;28;29462;-82
2024/04/02 04:28:34;;;;;;;;;1.67;0.00;;;;;;;;5046004;28;28914;-82
2024/04/02 04:31:01;;;;;;;;;1.00;0.00;;;;;;;;5059272;28;28926;-82
2024/04/02 04:33:31;;;;;;;;;2.00;0.00;;;;;;;;5045669;28;28548;-79
2024/04/02 04:35:58;;;;;;;;;0.00;0.00;;;;;;;;5049795;28;28801;-78
2024/04/02 04:38:25;;;;;;;;;1.00;0.00;;;;;;;;5047358;28;29139;-75
2024/04/02 04:40:52;;;;;;;;;0.67;0.00;;;;;;;;5046593;28;28434;-76
2024/04/02 04:43:18;;;;;;;;;0.00;0.00;;;;;;;;5043095;28;28972;-74
2024/04/02 04:45:52;;;;;;;;;2.00;0.00;;;;;;;;5045160;28;28572;-75
2024/04/02 04:48:18;;;;;;;;;0.33;0.00;;;;;;;;5046923;28;29529;-77
2024/04/02 04:50:53;;;;;;;;;0.00;0.00;;;;;;;;5043763;28;28680;-75
2024/04/02 04:53:18;;;;;;;;;0.00;0.00;;;;;;;;5043384;28;28564;-77
2024/04/02 04:55:44;;;;;;;;;1.67;0.00;;;;;;;;5046362;28;28426;-77
2024/04/02 04:58:09;;;;;;;;;0.00;0.00;;;;;;;;5046994;28;28743;-77
2024/04/02 05:00:34;;;;;;;;;1.00;0.00;;;;;;;;5045289;28;28975;-76
2024/04/02 05:03:00;;;;;;;;;3.67;0.00;;;;;;;;5045099;28;29192;-75
2024/04/02 05:05:25;;;;;;;;;0.00;0.00;;;;;;;;5047904;28;28664;-75
2024/04/02 05:08:15;;;;;;;;;2.67;0.00;;;;;;;;5042829;28;30398;-77
2024/04/02 05:10:41;;;;;;;;;0.00;0.00;;;;;;;;5046874;28;28649;-77
2024/04/02 05:13:06;;;;;;;;;2.00;0.00;;;;;;;;5046813;28;28593;-75
2024/04/02 05:15:32;;;;;;;;;2.00;0.00;;;;;;;;5045611;28;29700;-74
2024/04/02 05:17:57;;;;;;;;;4.67;0.00;;;;;;;;5044065;28;30969;-76
2024/04/02 05:20:23;;;;;;;;;1.00;0.00;;;;;;;;5043103;28;29255;-75
2024/04/02 05:22:48;;;;;;;;;2.00;0.00;;;;;;;;5043790;28;28515;-75
2024/04/02 05:25:13;;;;;;;;;1.00;0.00;;;;;;;;5044359;28;29183;-76
2024/04/02 05:27:40;;;;;;;;;2.33;0.00;;;;;;;;5043887;28;28731;-76
2024/04/02 05:30:05;;;;;;;;;2.00;1.00;;;;;;;;5045837;28;28634;-75
2024/04/02 05:32:30;;;;;;;;;0.33;0.00;;;;;;;;5065139;28;28515;-76
2024/04/02 05:34:56;;;;;;;;;2.00;0.00;;;;;;;;5045245;28;28640;-77
2024/04/02 05:37:21;;;;;;;;;2.00;0.00;;;;;;;;5044469;28;28434;-77
2024/04/02 05:39:49;;;;;;;;;0.00;0.00;;;;;;;;5047867;28;28888;-75
2024/04/02 05:42:15;;;;;;;;;1.00;0.00;;;;;;;;5047183;28;28858;-75
2024/04/02 05:44:43;;;;;;;;;1.00;0.00;;;;;;;;5047445;28;29077;-80
2024/04/02 05:47:09;;;;;;;;;1.00;0.00;;;;;;;;5040775;28;29713;-74
2024/04/02 05:49:34;;;;;;;;;0.67;0.00;;;;;;;;5048778;28;28612;-79
2024/04/02 05:51:59;;;;;;;;;1.00;0.00;;;;;;;;5056722;28;28551;-75
2024/04/02 05:54:25;;;;;;;;;1.00;0.00;;;;;;;;5049087;28;28731;-76
2024/04/02 05:56:50;;;;;;;;;2.33;0.00;;;;;;;;5048236;28;30217;-76
2024/04/02 05:59:15;;;;;;;;;0.00;0.00;;;;;;;;5051768;28;28544;-76
2024/04/02 06:01:42;;;;;;;;;0.00;0.00;;;;;;;;5050606;28;28404;-79
2024/04/02 06:04:08;;;;;;;;;2.00;0.00;;;;;;;;5043007;28;28708;-78
2024/04/02 06:06:33;;;;;;;;;1.00;0.00;;;;;;;;5063827;28;30829;-77
2024/04/02 06:08:58;;;;;;;;;0.00;0.00;;;;;;;;5037560;28;28485;-74
2024/04/02 06:11:27;;;;;;;;;0.00;0.00;;;;;;;;5050440;28;28813;-76
2024/04/02 06:13:52;;;;;;;;;2.00;0.67;;;;;;;;5049763;28;28924;-76
2024/04/02 06:16:17;;;;;;;;;0.33;0.00;;;;;;;;5050156;28;28478;-77
2024/04/02 06:18:43;;;;;;;;;1.00;0.00;;;;;;;;5048756;28;28518;-75
2024/04/02 06:21:08;;;;;;;;;3.33;0.00;;;;;;;;5050768;28;28707;-79
2024/04/02 06:23:53;;;;;;;;;2.00;0.00;;;;;;;;5050619;28;28527;-82
2024/04/02 06:26:23;;;;;;;;;2.67;0.00;;;;;;;;5051317;28;28581;-81
2024/04/02 06:28:54;;;;;;;;;0.00;0.00;;;;;;;;5041039;28;29071;-79
2024/04/02 06:31:26;;;;;;;;;0.00;0.00;;;;;;;;5061015;28;28683;-80
2024/04/02 06:33:51;;;;;;;;;2.00;0.00;;;;;;;;5050904;28;29462;-78
2024/04/02 06:36:17;;;;;;;;;0.00;0.00;;;;;;;;5048572;28;28501;-75
2024/04/02 06:38:42;;;;;;;;;2.00;0.00;;;;;;;;5048356;28;28706;-73
2024/04/02 06:41:07;;;;;;;;;0.33;0.00;;;;;;;;5049016;28;28858;-73
2024/04/02 06:43:33;;;;;;;;;0.00;0.00;;;;;;;;5049028;28;28474;-75
2024/04/02 06:46:00;;;;;;;;;0.00;0.00;;;;;;;;5049329;28;28635;-76
2024/04/02 06:48:25;;;;;;;;;0.25;0.00;;;;;;;;5045762;28;28894;-76
2024/04/02 06:51:13;;;;;;;;;2.00;0.00;;;;;;;;5048536;28;28908;-74
2024/04/02 06:53:39;;;;;;;;;4.80;0.00;;;;;;;;5039980;28;29215;-74
2024/04/02 06:56:05;;;;;;;;;0.00;0.00;;;;;;;;5047874;28;29375;-74
2024/04/02 06:58:30;;;;;;;;;0.33;0.00;;;;;;;;5055882;28;28710;-75
2024/04/02 07:00:59;;;;;;;;;1.00;0.00;;;;;;;;5048130;28;28112;-74
2024/04/02 07:03:47;;;;;;;;;;;;;;;;;;;;;
2024/04/02 07:06:12;;;;;;;;;2.40;0.00;;;;;;;;5051509;28;57116;-74
2024/04/02 07:08:46;;;;;;;;;2.75;0.00;;;;;;;;5051136;28;28797;-74
2024/04/02 07:11:39;;;;;;;;;0.00;0.00;;;;;;;;5051205;28;28201;-75
2024/04/02 07:14:02;;;;;;;;;0.00;0.00;;;;;;;;5051146;28;28727;-76
2024/04/02 07:16:53;;;;;;;;;1.50;0.00;;;;;;;;5050975;28;29639;-73
2024/04/02 07:19:18;;;;;;;;;0.75;0.00;;;;;;;;5050819;28;28592;-75
2024/04/02 07:21:45;;;;;;;;;0.50;0.00;;;;;;;;5048384;28;28710;-75
2024/04/02 07:24:11;;;;;;;;;0.00;0.00;;;;;;;;5049225;28;28808;-76
2024/04/02 07:26:36;;;;;;;;;0.00;0.00;;;;;;;;5047034;28;29341;-74
2024/04/02 07:29:01;;;;;;;;;1.00;0.00;;;;;;;;5048250;28;28765;-76
2024/04/02 07:31:28;;;;;;;;;0.00;0.00;;;;;;;;5047937;28;28865;-75
2024/04/02 07:33:53;;;;;;;;;1.40;0.00;;;;;;;;5046502;28;29750;-77
2024/04/02 07:36:19;;;;;;;;;3.25;0.00;;;;;;;;5063346;28;28459;-75
2024/04/02 07:38:44;;;;;;;;;1.00;0.00;;;;;;;;5048719;28;28031;-76
2024/04/02 07:41:09;;;;;;;;;3.50;0.00;;;;;;;;5047220;28;28493;-76
2024/04/02 07:43:35;;;;;;;;;0.00;0.00;;;;;;;;5042543;28;29031;-75
2024/04/02 07:46:00;;;;;;;;;0.25;0.00;;;;;;;;5047418;28;29894;-77
2024/04/02 07:48:26;;;;;;;;;0.25;0.00;;;;;;;;5047605;28;28626;-73
2024/04/02 07:50:51;;;;;;;;;0.75;0.00;;;;;;;;5045145;28;28445;-73
2024/04/02 07:53:16;;;;;;;;;0.25;0.25;;;;;;;;5041879;28;28511;-74
2024/04/02 07:55:42;;;;;;;;;0.00;0.00;;;;;;;;5048150;28;28599;-74
2024/04/02 07:58:10;;;;;;;;;0.00;0.00;;;;;;;;5045679;28;28923;-75
2024/04/02 08:00:36;;;;;;;;;1.00;0.00;;;;;;;;5045510;28;28632;-72
2024/04/02 08:03:03;;;;;;;;;0.00;0.00;;;;;;;;5044904;28;28824;-74
2024/04/02 08:05:31;;;;;;;;;0.00;0.00;;;;;;;;5047841;28;28508;-73
2024/04/02 08:07:59;;;;;;;;;0.50;0.00;;;;;;;;5046899;28;28989;-74
2024/04/02 08:10:25;;;;;;;;;1.33;0.00;;;;;;;;5047777;28;28405;-74
2024/04/02 08:12:50;;;;;;;;;1.00;0.00;;;;;;;;5047297;28;28440;-74
2024/04/02 08:15:16;;;;;;;;;2.00;0.00;;;;;;;;5046784;28;29276;-74
2024/04/02 08:17:41;;;;;;;;;0.33;0.00;;;;;;;;5039817;28;29504;-73
2024/04/02 08:20:10;;;;;;;;;0.00;0.00;;;;;;;;5047232;28;28792;-74
2024/04/02 08:22:36;;;;;;;;;1.33;0.00;;;;;;;;5044981;28;30164;-77
2024/04/02 08:25:01;;;;;;;;;1.00;0.00;;;;;;;;5045699;28;29754;-73
2024/04/02 08:27:29;;;;;;;;;2.00;0.00;;;;;;;;5046664;28;28924;-73
2024/04/02 08:29:55;;;;;;;;;1.00;0.00;;;;;;;;5044225;28;28524;-75
2024/04/02 08:32:22;;;;;;;;;1.00;0.00;;;;;;;;5059209;28;29827;-73
2024/04/02 08:34:48;;;;;;;;;1.00;0.00;;;;;;;;5046900;28;29214;-72
2024/04/02 08:37:13;;;;;;;;;1.33;0.00;;;;;;;;5048007;28;28467;-74
2024/04/02 08:39:40;;;;;;;;;2.00;0.00;;;;;;;;5061636;28;28529;-72
2024/04/02 08:42:06;;;;;;;;;1.00;0.00;;;;;;;;5041809;28;28457;-76
2024/04/02 08:44:33;;;;;;;;;0.00;0.00;;;;;;;;5045073;28;28943;-74
2024/04/02 08:46:58;;;;;;;;;3.00;0.00;;;;;;;;5046782;28;28806;-73
2024/04/02 08:49:24;;;;;;;;;1.00;0.00;;;;;;;;5046797;28;28557;-74
2024/04/02 08:51:49;;;;;;;;;3.67;0.00;;;;;;;;5046934;28;28687;-75
2024/04/02 08:54:15;;;;;;;;;2.33;0.00;;;;;;;;5044547;28;28421;-74
2024/04/02 08:56:41;;;;;;;;;0.00;0.00;;;;;;;;5044915;28;28723;-74
2024/04/02 08:59:07;;;;;;;;;0.00;0.00;;;;;;;;5046592;28;28556;-74
2024/04/02 09:01:33;;;;;;;;;0.00;0.00;;;;;;;;5044884;28;29395;-73
2024/04/02 09:04:01;;;;;;;;;2.67;0.00;;;;;;;;5041054;28;28610;-72
2024/04/02 09:06:26;;;;;;;;;0.00;0.00;;;;;;;;5046242;28;29081;-73
2024/04/02 09:08:52;;;;;;;;;0.00;0.00;;;;;;;;5047333;28;28624;-75
2024/04/02 09:11:18;;;;;;;;;0.00;0.00;;;;;;;;5077991;28;28609;-71
2024/04/02 09:13:43;;;;;;;;;0.25;0.00;;;;;;;;5033671;28;28869;-74
2024/04/02 09:16:10;;;;;;;;;0.25;0.00;;;;;;;;5035993;28;28628;-74
2024/04/02 09:18:37;;;;;;;;;1.00;0.00;;;;;;;;5044437;28;28807;-73
2024/04/02 09:21:03;;;;;;;;;0.20;0.00;;;;;;;;5046384;28;30070;-73
2024/04/02 09:23:28;;;;;;;;;1.00;0.00;;;;;;;;5044962;28;31032;-73
2024/04/02 09:25:54;;;;;;;;;0.50;0.00;;;;;;;;5045653;28;28529;-73
2024/04/02 09:28:19;;;;;;;;;0.00;0.00;;;;;;;;5042389;28;28496;-73
2024/04/02 09:30:45;;;;;;;;;0.50;0.00;;;;;;;;5044104;28;29114;-73
2024/04/02 09:33:11;;;;;;;;;2.00;0.00;;;;;;;;5045912;28;28583;-74
2024/04/02 09:35:48;;;;;;;;;1.00;0.00;;;;;;;;5046200;28;28533;-73
2024/04/02 09:38:16;;;;;;;;;2.00;0.00;;;;;;;;5044559;28;28908;-74
2024/04/02 09:40:42;;;;;;;;;1.00;0.00;;;;;;;;5044148;28;29286;-71
2024/04/02 09:43:10;;;;;;;;;0.00;0.00;;;;;;;;5045614;28;28833;-73
2024/04/02 09:45:36;;;;;;;;;0.60;0.00;;;;;;;;5045430;28;28554;-73
2024/04/02 09:48:02;;;;;;;;;0.00;0.00;;;;;;;;5045352;28;28468;-74
2024/04/02 09:50:29;;;;;;;;;0.00;0.00;;;;;;;;5046123;28;28842;-73
2024/04/02 09:52:58;;;;;;;;;0.80;0.00;;;;;;;;5045690;28;28505;-73
2024/04/02 09:55:26;;;;;;;;;0.00;0.00;;;;;;;;5045734;28;28578;-73
2024/04/02 09:57:53;;;;;;;;;1.00;0.00;;;;;;;;5060118;28;28775;-74
2024/04/02 10:00:19;;;;;;;;;0.20;0.00;;;;;;;;5045590;28;28523;-74
2024/04/02 10:02:44;;;;;;;;;2.00;0.00;;;;;;;;5044133;28;30605;-76
2024/04/02 10:05:16;;;;;;;;;0.00;0.00;;;;;;;;5045529;28;28863;-77
2024/04/02 10:07:42;;;;;;;;;3.00;0.00;;;;;;;;5043248;28;28575;-75
2024/04/02 10:10:07;;;;;;;;;0.00;0.00;;;;;;;;5047319;28;28522;-74
2024/04/02 10:12:33;;;;;;;;;1.25;0.00;;;;;;;;5046843;28;28608;-75
2024/04/02 10:15:05;;;;;;;;;0.80;0.00;;;;;;;;5045631;28;28426;-75
2024/04/02 10:17:33;;;;;;;;;0.00;0.00;;;;;;;;5047382;28;28875;-74
2024/04/02 10:19:59;;;;;;;;;0.20;0.00;;;;;;;;5039695;28;30365;-75
2024/04/02 10:22:31;;;;;;;;;0.00;0.00;;;;;;;;5043458;28;29373;-76
2024/04/02 10:25:06;;;;;;;;;0.00;0.00;;;;;;;;5044186;28;28755;-73
2024/04/02 10:27:34;;;;;;;;;2.00;0.00;;;;;;;;5041199;28;28485;-74
2024/04/02 10:29:59;;;;;;;;;0.00;0.00;;;;;;;;5044839;28;29821;-75
2024/04/02 10:32:29;;;;;;;;;0.00;0.00;;;;;;;;5049305;28;30131;-74
2024/04/02 10:34:55;;;;;;;;;0.00;0.00;;;;;;;;5042845;28;28500;-73
2024/04/02 10:37:20;;;;;;;;;0.00;0.00;;;;;;;;5046274;28;28677;-75
2024/04/02 10:39:45;;;;;;;;;0.00;0.00;;;;;;;;5046760;28;28910;-75
2024/04/02 10:42:10;;;;;;;;;2.75;0.00;;;;;;;;5046902;28;28975;-76
2024/04/02 10:44:36;;;;;;;;;3.00;0.00;;;;;;;;5045561;28;28688;-76
2024/04/02 10:47:01;;;;;;;;;1.00;0.00;;;;;;;;5050528;28;28775;-77
2024/04/02 10:49:27;;;;;;;;;0.00;0.00;;;;;;;;5062191;28;29302;-75
2024/04/02 10:51:52;;;;;;;;;1.50;0.00;;;;;;;;5045465;28;28753;-76
2024/04/02 10:54:17;;;;;;;;;0.00;0.00;;;;;;;;5064173;28;28787;-75
2024/04/02 10:56:43;;;;;;;;;1.00;0.00;;;;;;;;5046143;28;28478;-75
2024/04/02 10:59:08;;;;;;;;;1.75;0.00;;;;;;;;5042004;28;28467;-74
2024/04/02 11:01:33;;;;;;;;;3.50;0.00;;;;;;;;5057592;28;29270;-76
2024/04/02 11:03:59;;;;;;;;;0.00;0.00;;;;;;;;5046251;28;28719;-75
2024/04/02 11:06:24;;;;;;;;;0.00;0.00;;;;;;;;5044194;28;28485;-78
2024/04/02 11:08:54;;;;;;;;;0.00;0.00;;;;;;;;5048652;28;28796;-75
2024/04/02 11:11:31;;;;;;;;;1.00;0.00;;;;;;;;5064627;28;29842;-75
2024/04/02 11:14:09;;;;;;;;;0.60;0.00;;;;;;;;5049237;28;28772;-76
2024/04/02 11:16:35;;;;;;;;;0.80;0.00;;;;;;;;5046923;28;28588;-76
2024/04/02 11:19:01;;;;;;;;;0.60;0.00;;;;;;;;5047686;28;28659;-77
2024/04/02 11:21:26;;;;;;;;;0.00;0.00;;;;;;;;5045596;28;29183;-74
2024/04/02 11:26:36;;;;;;;;;0.00;0.00;;;;;;;;5039881;28;28478;-75
2024/04/02 11:29:05;;;;;;;;;0.00;0.00;;;;;;;;5043895;28;29369;-75
2024/04/02 11:31:30;;;;;;;;;0.00;0.00;;;;;;;;5045496;28;28640;-76
2024/04/02 11:33:55;;;;;;;;;0.00;0.00;;;;;;;;5044684;28;29693;-75
2024/04/02 11:36:20;;;;;;;;;0.00;0.00;;;;;;;;5046336;28;28565;-72
2024/04/02 11:38:46;;;;;;;;;0.00;0.00;;;;;;;;5046876;28;28469;-75
2024/04/02 11:41:11;;;;;;;;;2.50;0.00;;;;;;;;5047445;28;29014;-77
2024/04/02 11:43:38;;;;;;;;;0.00;0.00;;;;;;;;5043805;28;28535;-77
2024/04/02 11:46:03;;;;;;;;;0.00;0.00;;;;;;;;5046969;28;28442;-76
2024/04/02 11:48:29;;;;;;;;;0.00;0.00;;;;;;;;5062750;28;29427;-77
2024/04/02 11:50:54;;;;;;;;;0.00;0.00;;;;;;;;5047234;28;28506;-75
2024/04/02 11:53:20;;;;;;;;;0.00;0.00;;;;;;;;5046901;28;28789;-75
2024/04/02 11:55:49;;;;;;;;;0.00;0.00;;;;;;;;5047389;28;28556;-76
2024/04/02 12:00:59;;;;;;;;;0.00;0.00;;;;;;;;5046425;28;29376;-76
2024/04/02 12:03:24;;;;;;;;;0.00;0.00;;;;;;;;5047408;28;28524;-76
2024/04/02 12:05:52;;;;;;;;;0.75;0.00;;;;;;;;5046837;28;28430;-78
2024/04/02 12:08:17;;;;;;;;;2.00;0.00;;;;;;;;5037085;28;28631;-74
2024/04/02 12:10:42;;;;;;;;;0.00;0.00;;;;;;;;5046083;28;28535;-75
2024/04/02 12:13:08;;;;;;;;;0.00;0.00;;;;;;;;5046600;28;28490;-74
2024/04/02 12:15:33;;;;;;;;;0.00;0.00;;;;;;;;5047468;28;28880;-75
2024/04/02 12:17:59;;;;;;;;;0.00;0.00;;;;;;;;5063311;28;29048;-76
2024/04/02 12:20:24;;;;;;;;;0.00;0.00;;;;;;;;5045896;28;29944;-76
2024/04/02 12:22:50;;;;;;;;;1.00;0.00;;;;;;;;5062124;28;28854;-76
2024/04/02 12:25:15;;;;;;;;;0.00;0.00;;;;;;;;5047215;28;28910;-75
2024/04/02 12:27:40;;;;;;;;;0.00;0.00;;;;;;;;5047302;28;28469;-76
2024/04/02 12:30:06;;;;;;;;;0.00;0.00;;;;;;;;5045360;28;31089;-75
2024/04/02 12:32:32;;;;;;;;;0.00;0.00;;;;;;;;5044995;28;28747;-75
2024/04/02 12:34:58;;;;;;;;;0.00;0.00;;;;;;;;5046245;28;28294;-75
2024/04/02 12:37:23;;;;;;;;;0.00;0.00;;;;;;;;5043964;28;29475;-74
2024/04/02 12:39:48;;;;;;;;;1.00;0.00;;;;;;;;5038149;28;30097;-76
2024/04/02 12:42:15;;;;;;;;;0.00;0.00;;;;;;;;5038210;28;28545;-75
2024/04/02 12:44:40;;;;;;;;;0.00;0.00;;;;;;;;5046370;28;28866;-75
2024/04/02 12:47:06;;;;;;;;;0.00;0.00;;;;;;;;5046559;28;28650;-75
2024/04/02 12:49:32;;;;;;;;;0.75;0.00;;;;;;;;5043385;28;29605;-74
2024/04/02 12:51:57;;;;;;;;;0.00;0.00;;;;;;;;5046853;28;28980;-76
2024/04/02 12:54:22;;;;;;;;;0.00;0.00;;;;;;;;5046379;28;28883;-76
2024/04/02 12:56:48;;;;;;;;;0.00;0.00;;;;;;;;5041448;28;29126;-75
2024/04/02 12:59:14;;;;;;;;;0.00;0.00;;;;;;;;5043018;28;28587;-75
2024/04/02 13:01:39;;;;;;;;;0.00;0.00;;;;;;;;5047134;28;28632;-76
2024/04/02 13:04:05;;;;;;;;;0.00;0.00;;;;;;;;5046504;28;28837;-76
2024/04/02 13:06:31;;;;;;;;;0.00;0.00;;;;;;;;5046988;28;28796;-75
2024/04/02 13:08:56;;;;;;;;;0.00;0.00;;;;;;;;5045089;28;30659;-75
2024/04/02 13:11:22;;;;;;;;;1.00;0.00;;;;;;;;5045726;28;29546;-75
2024/04/02 13:13:47;;;;;;;;;0.00;0.00;;;;;;;;5060722;28;28904;-79
2024/04/02 13:16:18;;;;;;;;;0.00;0.00;;;;;;;;5047878;28;28572;-80
2024/04/02 13:18:43;;;;;;;;;0.00;0.00;;;;;;;;5048626;28;28906;-80
2024/04/02 13:21:17;;;;;;;;;0.00;0.00;;;;;;;;5043886;28;28722;-85
2024/04/02 13:23:42;;;;;;;;;0.00;0.00;;;;;;;;5046963;28;28834;-81
2024/04/02 13:26:08;;;;;;;;;0.25;0.00;;;;;;;;5047246;28;28577;-82
2024/04/02 13:28:35;;;;;;;;;0.00;0.00;;;;;;;;5048600;28;28603;-84
2024/04/02 13:31:03;;;;;;;;;0.00;0.00;;;;;;;;5047587;28;28510;-83
2024/04/02 13:33:29;;;;;;;;;0.80;0.00;;;;;;;;5048835;28;28587;-83
2024/04/02 13:35:54;;;;;;;;;1.00;0.00;;;;;;;;5049207;28;28570;-83
2024/04/02 13:38:19;;;;;;;;;1.50;0.75;;;;;;;;5042236;28;28640;-86
2024/04/02 13:40:44;;;;;;;;;0.00;0.00;;;;;;;;5051100;28;28758;-83
2024/04/02 13:43:10;;;;;;;;;2.00;0.00;;;;;;;;5048372;28;28105;-82
2024/04/02 13:45:35;;;;;;;;;0.00;0.00;;;;;;;;5048202;28;28411;-83
2024/04/02 13:48:00;;;;;;;;;0.00;0.00;;;;;;;;5048398;28;28738;-82
2024/04/02 13:50:26;;;;;;;;;1.00;1.00;;;;;;;;5048490;28;28631;-82
2024/04/02 13:52:51;;;;;;;;;0.00;0.00;;;;;;;;5049766;28;28452;-82
2024/04/02 13:55:17;;;;;;;;;0.00;0.00;;;;;;;;5047833;28;29323;-83
2024/04/02 13:57:42;;;;;;;;;0.75;0.00;;;;;;;;5048796;28;28771;-84
2024/04/02 14:00:09;;;;;;;;;0.00;0.00;;;;;;;;5047408;28;28525;-83
2024/04/02 14:02:34;;;;;;;;;0.00;0.00;;;;;;;;5049211;28;28694;-83
2024/04/02 14:04:59;;;;;;;;;0.00;0.00;;;;;;;;5061126;28;29554;-84
2024/04/02 14:07:31;;;;;;;;;0.00;0.00;;;;;;;;5048469;28;28848;-82
2024/04/02 14:09:56;;;;;;;;;3.00;0.00;;;;;;;;5051017;28;28687;-83
2024/04/02 14:12:22;;;;;;;;;0.00;0.00;;;;;;;;5050309;28;29284;-82
2024/04/02 14:14:47;;;;;;;;;1.50;0.00;;;;;;;;5058820;28;28787;-82
2024/04/02 14:17:12;;;;;;;;;0.00;0.00;;;;;;;;5043692;28;29615;-83
2024/04/02 14:19:38;;;;;;;;;0.00;0.00;;;;;;;;5038374;28;28472;-83
2024/04/02 14:22:04;;;;;;;;;0.20;0.20;;;;;;;;5049805;28;28735;-82
2024/04/02 14:24:29;;;;;;;;;0.00;0.00;;;;;;;;5052062;28;29507;-81
2024/04/02 14:26:54;;;;;;;;;0.25;0.00;;;;;;;;5050192;28;31295;-83
2024/04/02 14:29:20;;;;;;;;;0.00;0.00;;;;;;;;5046823;28;29004;-82
2024/04/02 14:31:45;;;;;;;;;0.00;0.00;;;;;;;;5048983;28;28919;-84
2024/04/02 14:34:11;;;;;;;;;0.00;0.00;;;;;;;;5049400;28;28704;-85
2024/04/02 14:36:38;;;;;;;;;0.00;0.00;;;;;;;;5055859;28;28535;-86
2024/04/02 14:39:06;;;;;;;;;0.00;0.00;;;;;;;;5078743;28;28592;-88
2024/04/02 14:41:32;;;;;;;;;0.00;0.00;;;;;;;;5053654;28;28510;-85
2024/04/02 14:43:57;;;;;;;;;0.00;0.00;;;;;;;;5053552;28;28796;-83
2024/04/02 14:46:22;;;;;;;;;0.00;0.00;;;;;;;;5057632;28;29291;-83
2024/04/02 14:48:48;;;;;;;;;3.00;0.00;;;;;;;;5057739;28;28654;-83
2024/04/02 14:51:14;;;;;;;;;0.00;0.00;;;;;;;;5058666;28;28378;-83
2024/04/02 14:53:39;;;;;;;;;2.00;0.00;;;;;;;;5059650;28;28241;-85
2024/04/02 14:56:05;;;;;;;;;0.00;0.00;;;;;;;;5057067;28;28599;-81
2024/04/02 14:58:34;;;;;;;;;0.00;0.00;;;;;;;;5068830;28;29147;-82
2024/04/02 15:01:04;;;;;;;;;0.00;0.00;;;;;;;;5050960;28;28072;-81
2024/04/02 15:03:30;;;;;;;;;0.00;0.00;;;;;;;;5054528;28;29180;-82
2024/04/02 15:05:58;;;;;;;;;0.00;0.00;;;;;;;;5086235;28;29796;-83
2024/04/02 15:08:26;;;;;;;;;0.50;0.50;;;;;;;;5061059;28;29170;-82
2024/04/02 15:10:53;;;;;;;;;1.00;0.80;;;;;;;;5064121;28;27858;-84
2024/04/02 15:13:18;;;;;;;;;0.00;0.00;;;;;;;;5059570;28;28103;-79
2024/04/02 15:15:44;;;;;;;;;0.00;0.00;;;;;;;;5072791;28;29850;-84
2024/04/02 15:18:09;;;;;;;;;2.00;0.00;;;;;;;;5058503;28;28567;-82
2024/04/02 15:20:45;;;;;;;;;0.00;0.00;;;;;;;;5061191;28;29108;-80
2024/04/02 15:23:10;;;;;;;;;0.00;0.00;;;;;;;;5057984;28;29477;-82
2024/04/02 15:25:36;;;;;;;;;0.00;0.00;;;;;;;;5056478;28;28480;-82
2024/04/02 15:28:01;;;;;;;;;2.67;0.00;;;;;;;;5058014;28;28025;-83